This is the latest recevied weather packets stored in our database for station/object DG0PX-12. If no packets are shown the sender has not sent any weather packets the latest 10 day(s).
| Time | Temp. | Humidity | Pressure | Rain* | Wind** | Luminosity | Snow |
|---|---|---|---|---|---|---|---|
| 1787861679 | 30° C | 52% | 947.1 hPa | - | - | - | - |
| 1787860779 | 28.89° C | 54% | 947 hPa | - | - | - | - |
| 1787859879 | 29.44° C | 55% | 946.9 hPa | - | - | - | - |
| 1787858978 | 30° C | 51% | 946.7 hPa | - | - | - | - |
| 1787858078 | 30° C | 51% | 946.9 hPa | - | - | - | - |
| 1787857178 | 31.11° C | 51% | 946.8 hPa | - | - | - | - |
| 1787856278 | 30.56° C | 51% | 946.8 hPa | - | - | - | - |
| 1787855378 | 32.22° C | 44% | 946.8 hPa | - | - | - | - |
| 1787854478 | 31.67° C | 47% | 946.8 hPa | - | - | - | - |
| 1787853578 | 30.56° C | 49% | 946.7 hPa | - | - | - | - |
| 1787852678 | 31.67° C | 46% | 946.7 hPa | - | - | - | - |
| 1787851778 | 33.33° C | 41% | 946.8 hPa | - | - | - | - |
| 1787850878 | 33.33° C | 42% | 946.8 hPa | - | - | - | - |
| 1787849978 | 32.78° C | 45% | 946.7 hPa | - | - | - | - |
| 1787849078 | 32.78° C | 45% | 946.7 hPa | - | - | - | - |
| 1787848178 | 34.44° C | 40% | 947.1 hPa | - | - | - | - |
| 1787847278 | 34.44° C | 38% | 947.1 hPa | - | - | - | - |
| 1787846378 | 35° C | 36% | 947.4 hPa | - | - | - | - |
| 1787845478 | 35.56° C | 34% | 947.5 hPa | - | - | - | - |
| 1787844577 | 33.89° C | 37% | 947.4 hPa | - | - | - | - |
| 1787843677 | 35° C | 37% | 947.6 hPa | - | - | - | - |
| 1787842777 | 35.56° C | 36% | 947.5 hPa | - | - | - | - |
| 1787841877 | 34.44° C | 38% | 947.4 hPa | - | - | - | - |
| 1787840977 | 36.11° C | 35% | 947.5 hPa | - | - | - | - |
| 1787840077 | 37.22° C | 33% | 947.7 hPa | - | - | - | - |
* Rain since midnight (hover to see other rain measurements)
** Current wind speed in m/s (hover to see current wind gust speed)